createdAt,value
2017-09-27T00:00:53.963Z,8.10
2017-09-27T00:03:22.291Z,8.10
2017-09-27T00:05:49.888Z,8.10
2017-09-27T00:08:17.473Z,8.10
2017-09-27T00:10:45.808Z,8.10
2017-09-27T00:13:13.386Z,8.00
2017-09-27T00:15:40.964Z,8.00
2017-09-27T00:18:09.326Z,8.00
2017-09-27T00:20:36.888Z,8.00
2017-09-27T00:23:05.271Z,8.10
2017-09-27T00:25:32.930Z,8.00
2017-09-27T00:28:01.593Z,8.00
2017-09-27T00:30:29.252Z,8.00
2017-09-27T00:32:56.812Z,8.00
2017-09-27T00:35:24.382Z,8.00
2017-09-27T00:37:51.964Z,8.00
2017-09-27T00:40:19.621Z,8.00
2017-09-27T00:42:47.184Z,8.00
2017-09-27T00:45:14.773Z,8.00
2017-09-27T00:47:42.335Z,7.90
2017-09-27T00:50:09.967Z,7.90
2017-09-27T00:52:37.623Z,7.90
2017-09-27T00:55:05.284Z,7.90
2017-09-27T00:57:32.844Z,7.80
2017-09-27T01:00:00.427Z,7.80
2017-09-27T01:02:28.755Z,7.80
2017-09-27T01:04:56.319Z,7.70
2017-09-27T01:07:23.999Z,7.70
2017-09-27T01:09:51.759Z,7.70
2017-09-27T01:12:19.323Z,7.70
2017-09-27T01:14:46.987Z,7.70
2017-09-27T01:17:14.551Z,7.70
2017-09-27T01:19:42.114Z,7.70
2017-09-27T01:22:09.767Z,7.60
2017-09-27T01:24:37.328Z,7.60
2017-09-27T01:27:04.893Z,7.60
2017-09-27T01:29:32.481Z,7.60
2017-09-27T01:32:00.808Z,7.60
2017-09-27T01:34:28.369Z,7.50
2017-09-27T01:36:56.052Z,7.50
2017-09-27T01:39:23.716Z,7.50
2017-09-27T01:41:51.384Z,7.50
2017-09-27T01:44:19.047Z,7.50
2017-09-27T01:46:47.388Z,7.40
2017-09-27T01:49:14.948Z,7.40
2017-09-27T01:51:42.543Z,7.40
2017-09-27T01:54:10.192Z,7.40
2017-09-27T01:56:37.760Z,7.40
2017-09-27T01:59:05.343Z,7.40
2017-09-27T02:01:33.671Z,7.30
2017-09-27T02:04:01.239Z,7.30
2017-09-27T02:06:28.919Z,7.30
2017-09-27T02:08:56.486Z,7.40
2017-09-27T02:11:24.054Z,7.40
2017-09-27T02:13:51.635Z,7.40
2017-09-27T02:16:19.969Z,7.40
2017-09-27T02:18:47.528Z,7.40
2017-09-27T02:21:15.108Z,7.40
2017-09-27T02:23:42.768Z,7.40
2017-09-27T02:26:10.415Z,7.40
2017-09-27T02:28:37.998Z,7.40
2017-09-27T02:31:06.330Z,7.50
2017-09-27T02:33:33.892Z,7.40
2017-09-27T02:36:01.473Z,7.50
2017-09-27T02:38:29.037Z,7.50
2017-09-27T02:40:56.713Z,7.50
2017-09-27T02:43:24.296Z,7.50
2017-09-27T02:45:52.648Z,7.50
2017-09-27T02:48:20.308Z,7.50
2017-09-27T02:50:47.892Z,7.60
2017-09-27T02:53:16.223Z,7.60
2017-09-27T02:55:43.795Z,7.60
2017-09-27T02:58:11.502Z,7.70
2017-09-27T03:00:39.894Z,7.70
2017-09-27T03:03:07.501Z,7.70
2017-09-27T03:05:35.136Z,7.70
2017-09-27T03:08:02.752Z,7.70
2017-09-27T03:10:31.160Z,7.70
2017-09-27T03:12:58.823Z,7.70
2017-09-27T03:15:26.440Z,7.70
2017-09-27T03:17:54.863Z,7.60
2017-09-27T03:20:22.497Z,7.60
2017-09-27T03:22:50.869Z,7.50
2017-09-27T03:25:19.243Z,7.60
2017-09-27T03:27:46.879Z,7.60
2017-09-27T03:30:14.492Z,7.60
2017-09-27T03:32:42.166Z,7.70
2017-09-27T03:35:09.795Z,7.60
2017-09-27T03:37:38.175Z,7.60
2017-09-27T03:40:06.562Z,7.60
2017-09-27T03:42:35.066Z,7.50
2017-09-27T03:45:02.675Z,7.50
2017-09-27T03:47:30.390Z,7.50
2017-09-27T03:49:58.023Z,7.60
2017-09-27T03:52:26.400Z,7.50
2017-09-27T03:54:54.814Z,7.30
2017-09-27T03:57:22.445Z,7.30
2017-09-27T03:59:50.818Z,7.20
2017-09-27T04:02:19.197Z,7.10
2017-09-27T04:04:47.609Z,7.10
2017-09-27T04:07:15.335Z,7.00
2017-09-27T04:09:43.062Z,7.00
2017-09-27T04:12:10.694Z,6.90
2017-09-27T04:14:38.363Z,6.90
2017-09-27T04:17:05.970Z,6.80
2017-09-27T04:19:33.610Z,6.80
2017-09-27T04:22:01.213Z,6.70
2017-09-27T04:24:29.627Z,6.70
2017-09-27T04:26:57.290Z,6.70
2017-09-27T04:29:24.959Z,6.70
2017-09-27T04:31:52.568Z,6.70
2017-09-27T04:34:20.195Z,6.70
2017-09-27T04:36:47.838Z,6.60
2017-09-27T04:39:15.450Z,6.60
2017-09-27T04:41:43.094Z,6.60
2017-09-27T04:44:10.703Z,6.60
2017-09-27T04:46:39.079Z,6.60
2017-09-27T04:49:07.474Z,6.60
2017-09-27T04:51:35.138Z,6.50
2017-09-27T04:54:02.801Z,6.60
2017-09-27T04:56:30.430Z,6.60
2017-09-27T04:58:58.230Z,6.60
2017-09-27T05:01:25.889Z,6.60
2017-09-27T05:03:53.518Z,6.60
2017-09-27T05:06:21.894Z,6.60
2017-09-27T05:08:49.505Z,6.60
2017-09-27T05:11:17.487Z,6.70
2017-09-27T05:13:45.103Z,6.70
2017-09-27T05:16:13.508Z,6.80
2017-09-27T05:18:41.139Z,6.70
2017-09-27T05:21:09.535Z,6.80
2017-09-27T05:23:37.143Z,6.80
2017-09-27T05:26:04.871Z,6.90
2017-09-27T05:28:32.530Z,6.90
2017-09-27T05:31:00.195Z,7.00
2017-09-27T05:33:27.878Z,7.10
2017-09-27T05:35:55.490Z,7.20
2017-09-27T05:38:23.867Z,7.40
2017-09-27T05:40:52.279Z,7.50
2017-09-27T05:43:19.938Z,7.50
2017-09-27T05:45:47.557Z,7.70
2017-09-27T05:48:15.194Z,7.80
2017-09-27T05:50:42.811Z,8.00
2017-09-27T05:53:10.422Z,8.20
2017-09-27T05:55:38.101Z,8.30
2017-09-27T05:58:05.710Z,8.40
2017-09-27T06:00:33.325Z,8.50
2017-09-27T06:03:01.056Z,8.60
2017-09-27T06:05:28.670Z,8.80
2017-09-27T06:07:57.045Z,9.00
2017-09-27T06:10:25.465Z,9.10
2017-09-27T06:12:53.079Z,9.10
2017-09-27T06:15:20.696Z,9.30
2017-09-27T06:17:48.330Z,9.40
2017-09-27T06:20:16.137Z,9.50
2017-09-27T06:22:43.747Z,9.50
2017-09-27T06:25:12.395Z,9.70
2017-09-27T06:27:40.111Z,9.70
2017-09-27T06:30:07.716Z,9.80
2017-09-27T06:32:35.434Z,9.90
2017-09-27T06:35:03.047Z,10.00
2017-09-27T06:37:30.663Z,10.10
2017-09-27T06:39:58.323Z,10.10
2017-09-27T06:42:25.931Z,10.10
2017-09-27T06:44:53.547Z,10.10
2017-09-27T06:47:21.207Z,10.20
2017-09-27T06:49:48.826Z,10.20
2017-09-27T06:52:16.530Z,10.40
2017-09-27T06:54:44.162Z,10.40
2017-09-27T06:57:12.546Z,10.60
2017-09-27T06:59:40.277Z,10.60
2017-09-27T07:02:08.144Z,10.70
2017-09-27T07:04:35.870Z,10.90
2017-09-27T07:07:03.490Z,11.00
2017-09-27T07:09:31.190Z,11.10
2017-09-27T07:11:58.856Z,11.30
2017-09-27T07:14:26.476Z,11.40
2017-09-27T07:16:54.118Z,11.50
2017-09-27T07:19:21.730Z,11.70
2017-09-27T07:21:49.346Z,11.90
2017-09-27T07:24:16.980Z,12.00
2017-09-27T07:26:44.597Z,12.20
2017-09-27T07:29:12.977Z,12.60
2017-09-27T07:31:41.388Z,12.80
2017-09-27T07:34:09.042Z,12.80
2017-09-27T07:36:36.653Z,12.90
2017-09-27T07:39:04.288Z,13.10
2017-09-27T07:41:31.907Z,13.20
2017-09-27T07:44:00.283Z,13.70
2017-09-27T07:46:28.787Z,13.90
2017-09-27T07:48:56.400Z,13.90
2017-09-27T07:51:24.783Z,14.40
2017-09-27T07:53:52.485Z,14.40
2017-09-27T07:56:20.151Z,14.70
2017-09-27T07:58:47.769Z,14.90
2017-09-27T08:01:16.916Z,15.20
2017-09-27T08:03:44.547Z,15.20
2017-09-27T08:06:12.931Z,15.50
2017-09-27T08:08:41.330Z,15.60
2017-09-27T08:11:09.170Z,15.60
2017-09-27T08:13:37.546Z,15.80
2017-09-27T08:16:05.950Z,15.60
2017-09-27T08:18:33.566Z,15.60
2017-09-27T08:21:01.186Z,15.60
2017-09-27T08:23:28.818Z,15.70
2017-09-27T08:25:57.206Z,15.80
2017-09-27T08:28:24.824Z,15.80
2017-09-27T08:30:52.464Z,16.00
2017-09-27T08:33:20.105Z,16.00
2017-09-27T08:35:47.720Z,16.20
2017-09-27T08:38:15.430Z,16.40
2017-09-27T08:40:43.090Z,16.70
2017-09-27T08:43:10.709Z,16.90
2017-09-27T08:45:38.416Z,17.10
2017-09-27T08:48:06.032Z,17.20
2017-09-27T08:50:33.643Z,17.60
2017-09-27T08:53:01.284Z,17.70
2017-09-27T08:55:29.659Z,17.90
2017-09-27T08:57:58.061Z,18.10
2017-09-27T09:00:25.700Z,18.10
2017-09-27T09:02:54.099Z,18.20
2017-09-27T09:05:21.759Z,18.10
2017-09-27T09:07:49.422Z,18.40
2017-09-27T09:10:17.094Z,18.40
2017-09-27T09:12:44.746Z,18.40
2017-09-27T09:15:12.538Z,18.40
2017-09-27T09:17:40.182Z,18.20
2017-09-27T09:20:07.798Z,18.30
2017-09-27T09:22:36.217Z,18.00
2017-09-27T09:25:03.835Z,18.00
2017-09-27T09:27:31.446Z,17.70
2017-09-27T09:29:59.086Z,17.70
2017-09-27T09:32:27.488Z,17.60
2017-09-27T09:34:55.142Z,17.60
2017-09-27T09:37:22.787Z,17.60
2017-09-27T09:39:51.173Z,17.50
2017-09-27T09:42:18.845Z,17.50
2017-09-27T09:44:46.613Z,17.60
2017-09-27T09:47:14.227Z,17.60
2017-09-27T09:49:41.936Z,17.70
2017-09-27T09:52:09.567Z,17.50
2017-09-27T09:54:37.946Z,17.70
2017-09-27T09:57:06.331Z,17.60
2017-09-27T09:59:34.733Z,17.60
2017-09-27T10:02:02.372Z,17.50
2017-09-27T10:04:30.762Z,17.20
2017-09-27T10:06:58.435Z,17.20
2017-09-27T10:09:26.050Z,17.10
2017-09-27T10:11:53.669Z,17.00
2017-09-27T10:14:21.304Z,17.00
2017-09-27T10:16:49.699Z,17.00
2017-09-27T10:19:17.462Z,17.00
2017-09-27T10:21:45.098Z,17.20
2017-09-27T10:24:13.514Z,18.30
2017-09-27T10:26:41.205Z,18.30
2017-09-27T10:29:08.940Z,18.80
2017-09-27T10:31:36.550Z,19.30
2017-09-27T10:34:04.195Z,19.90
2017-09-27T10:36:31.825Z,20.80
2017-09-27T10:38:59.438Z,21.80
2017-09-27T10:41:27.050Z,22.20
2017-09-27T10:43:54.682Z,23.10
2017-09-27T10:46:23.087Z,25.50
2017-09-27T10:48:50.747Z,25.40
2017-09-27T10:51:18.383Z,26.20
2017-09-27T10:53:46.763Z,28.20
2017-09-27T10:56:15.141Z,27.40
2017-09-27T10:58:43.537Z,27.00
2017-09-27T11:01:11.165Z,26.90
2017-09-27T11:03:38.867Z,26.60
2017-09-27T11:06:06.503Z,26.50
2017-09-27T11:08:34.884Z,27.20
2017-09-27T11:11:03.271Z,26.70
2017-09-27T11:13:31.770Z,25.50
2017-09-27T11:15:59.383Z,25.40
2017-09-27T11:18:27.719Z,25.20
2017-09-27T11:20:55.350Z,24.30
2017-09-27T11:23:23.746Z,23.60
2017-09-27T11:25:51.358Z,23.60
2017-09-27T11:28:18.999Z,23.80
2017-09-27T11:30:46.643Z,23.60
2017-09-27T11:33:14.318Z,23.60
2017-09-27T11:35:41.950Z,22.90
2017-09-27T11:38:09.566Z,22.80
2017-09-27T11:40:38.719Z,22.00
2017-09-27T11:43:06.378Z,22.00
2017-09-27T11:45:34.063Z,22.20
2017-09-27T11:48:01.830Z,22.00
2017-09-27T11:50:29.466Z,22.10
2017-09-27T11:52:57.129Z,22.50
2017-09-27T11:55:24.741Z,23.00
2017-09-27T11:57:53.147Z,23.60
2017-09-27T12:00:21.579Z,25.40
2017-09-27T12:02:49.197Z,25.40
2017-09-27T12:05:17.695Z,27.80
2017-09-27T12:07:45.312Z,27.80
2017-09-27T12:10:12.929Z,28.80
2017-09-27T12:12:40.579Z,29.20
2017-09-27T12:15:08.912Z,32.00
2017-09-27T12:17:37.332Z,34.80
2017-09-27T12:20:05.038Z,34.60
2017-09-27T12:22:32.645Z,35.60
2017-09-27T12:25:01.028Z,37.60
2017-09-27T12:27:28.665Z,37.50
2017-09-27T12:29:56.363Z,36.80
2017-09-27T12:32:24.035Z,38.80
2017-09-27T12:34:51.670Z,38.40
2017-09-27T12:37:20.699Z,38.10
2017-09-27T12:39:48.315Z,38.10
2017-09-27T12:42:16.719Z,38.10
2017-09-27T12:44:44.331Z,38.10
2017-09-27T12:47:11.955Z,37.80
2017-09-27T12:49:39.586Z,38.00
2017-09-27T12:52:07.991Z,39.70
2017-09-27T12:54:35.606Z,39.60
2017-09-27T12:57:03.312Z,39.10
2017-09-27T12:59:30.934Z,39.90
2017-09-27T13:01:58.551Z,40.00
2017-09-27T13:04:26.189Z,41.20
2017-09-27T13:06:53.806Z,41.00
2017-09-27T13:09:22.930Z,39.40
2017-09-27T13:11:51.333Z,38.40
2017-09-27T13:14:18.950Z,38.40
2017-09-27T13:16:46.578Z,39.10
2017-09-27T13:19:14.259Z,38.30
2017-09-27T13:21:41.876Z,38.60
2017-09-27T13:24:09.489Z,38.90
2017-09-27T13:26:37.128Z,39.20
2017-09-27T13:29:04.767Z,39.10
2017-09-27T13:31:32.392Z,39.00
2017-09-27T13:34:00.791Z,38.20
2017-09-27T13:36:28.426Z,38.20
2017-09-27T13:38:56.255Z,38.20
2017-09-27T13:41:23.895Z,37.80
2017-09-27T13:43:51.515Z,39.30
2017-09-27T13:46:19.127Z,38.90
2017-09-27T13:48:46.776Z,38.60
2017-09-27T13:51:13.947Z,38.90
2017-09-27T13:53:41.106Z,39.50
2017-09-27T13:56:08.355Z,40.20
2017-09-27T13:58:35.606Z,39.90
2017-09-27T14:01:02.774Z,39.20
2017-09-27T14:03:30.010Z,39.30
2017-09-27T14:05:57.262Z,39.40
2017-09-27T14:08:24.426Z,40.00
2017-09-27T14:10:52.171Z,40.70
2017-09-27T14:13:19.428Z,39.90
2017-09-27T14:15:46.596Z,38.60
2017-09-27T14:18:13.868Z,36.60
2017-09-27T14:20:41.813Z,36.80
2017-09-27T14:23:09.045Z,36.80
2017-09-27T14:25:36.301Z,37.60
2017-09-27T14:28:03.469Z,37.40
2017-09-27T14:30:30.669Z,36.70
2017-09-27T14:32:59.165Z,38.20
2017-09-27T14:35:26.775Z,38.20
2017-09-27T14:37:54.383Z,36.90
2017-09-27T14:40:22.011Z,36.50
2017-09-27T14:42:49.706Z,36.30
2017-09-27T14:45:17.314Z,36.20
2017-09-27T14:47:45.850Z,36.90
2017-09-27T14:50:13.524Z,34.50
2017-09-27T14:52:41.183Z,34.40
2017-09-27T14:55:08.810Z,32.60
2017-09-27T14:57:37.182Z,31.40
2017-09-27T15:00:04.810Z,31.40
2017-09-27T15:02:32.603Z,30.70
2017-09-27T15:05:00.213Z,29.00
2017-09-27T15:07:27.838Z,28.20
2017-09-27T15:09:56.245Z,26.00
2017-09-27T15:12:23.863Z,26.00
2017-09-27T15:14:51.494Z,25.20
2017-09-27T15:17:19.139Z,24.80
2017-09-27T15:19:46.697Z,24.50
2017-09-27T15:22:14.283Z,24.10
2017-09-27T15:24:41.853Z,24.00
2017-09-27T15:27:09.393Z,23.80
2017-09-27T15:29:37.884Z,23.60
2017-09-27T15:32:05.586Z,23.60
2017-09-27T15:34:34.013Z,23.20
2017-09-27T15:37:01.562Z,23.20
2017-09-27T15:39:29.110Z,23.00
2017-09-27T15:41:57.398Z,22.50
2017-09-27T15:44:24.919Z,22.50
2017-09-27T15:46:53.975Z,22.00
2017-09-27T15:49:21.498Z,22.00
2017-09-27T15:51:49.785Z,21.90
2017-09-27T15:54:17.370Z,21.90
2017-09-27T15:56:44.934Z,22.10
2017-09-27T15:59:12.468Z,22.20
2017-09-27T16:01:40.018Z,21.90
2017-09-27T16:04:07.545Z,22.00
2017-09-27T16:06:35.289Z,21.70
2017-09-27T16:09:02.845Z,21.50
2017-09-27T16:11:30.412Z,21.50
2017-09-27T16:13:57.953Z,21.10
2017-09-27T16:16:25.529Z,20.90
2017-09-27T16:18:53.071Z,20.60
2017-09-27T16:21:20.601Z,20.40
2017-09-27T16:23:48.155Z,20.20
2017-09-27T16:26:16.483Z,19.60
2017-09-27T16:28:44.026Z,19.60
2017-09-27T16:31:11.579Z,19.40
2017-09-27T16:33:39.147Z,19.30
2017-09-27T16:36:06.707Z,19.00
2017-09-27T16:38:34.463Z,18.90
2017-09-27T16:41:02.030Z,18.70
2017-09-27T16:43:29.586Z,18.50
2017-09-27T16:45:57.150Z,18.40
2017-09-27T16:48:24.690Z,18.20
2017-09-27T16:50:52.989Z,18.00
2017-09-27T16:53:20.645Z,18.00
2017-09-27T16:55:48.214Z,17.80
2017-09-27T16:58:15.775Z,17.60
2017-09-27T17:00:44.054Z,17.50
2017-09-27T17:03:11.602Z,17.30
2017-09-27T17:05:39.207Z,17.20
2017-09-27T17:08:06.765Z,17.10
2017-09-27T17:10:34.341Z,17.00
2017-09-27T17:13:02.701Z,16.70
2017-09-27T17:15:32.529Z,16.50
2017-09-27T17:18:00.127Z,16.50
2017-09-27T17:20:27.695Z,16.40
2017-09-27T17:22:55.364Z,16.20
2017-09-27T17:25:22.891Z,16.20
2017-09-27T17:27:50.416Z,16.00
2017-09-27T17:30:18.050Z,15.90
2017-09-27T17:32:45.594Z,15.80
2017-09-27T17:35:13.159Z,15.70
2017-09-27T17:37:40.718Z,15.60
2017-09-27T17:40:08.248Z,15.50
2017-09-27T17:42:35.954Z,15.40
2017-09-27T17:45:03.508Z,15.40
2017-09-27T17:47:31.049Z,15.30
2017-09-27T17:49:58.578Z,15.20
2017-09-27T17:52:26.898Z,15.00
2017-09-27T17:54:54.434Z,15.00
2017-09-27T17:57:21.972Z,14.90
2017-09-27T17:59:50.394Z,14.70
2017-09-27T18:02:18.358Z,14.70
2017-09-27T18:05:03.722Z,14.70
2017-09-27T18:10:59.801Z,14.40
2017-09-27T18:13:33.045Z,14.40
2017-09-27T18:16:07.137Z,14.20
2017-09-27T18:18:44.573Z,14.20
2017-09-27T18:21:12.129Z,14.10
2017-09-27T18:23:39.660Z,14.00
2017-09-27T18:26:07.963Z,13.90
2017-09-27T18:28:35.523Z,13.90
2017-09-27T18:31:03.075Z,13.80
2017-09-27T18:33:30.611Z,13.80
2017-09-27T18:35:58.942Z,13.60
2017-09-27T18:38:26.478Z,13.60
2017-09-27T18:40:54.004Z,13.50
2017-09-27T18:43:21.619Z,13.50
2017-09-27T18:45:49.154Z,13.40
2017-09-27T18:48:16.678Z,13.30
2017-09-27T18:50:44.311Z,13.30
2017-09-27T18:53:11.862Z,13.30
2017-09-27T18:55:39.400Z,13.20
2017-09-27T18:58:06.980Z,13.10
2017-09-27T19:00:34.514Z,13.00
2017-09-27T19:03:02.053Z,13.00
2017-09-27T19:05:30.378Z,12.90
2017-09-27T19:07:57.909Z,12.80
2017-09-27T19:10:25.445Z,12.80
2017-09-27T19:12:53.881Z,12.70
2017-09-27T19:15:21.587Z,12.70
2017-09-27T19:17:49.878Z,12.60
2017-09-27T19:20:18.198Z,12.50
2017-09-27T19:22:45.735Z,12.50
2017-09-27T19:25:13.272Z,12.40
2017-09-27T19:27:41.689Z,12.30
2017-09-27T19:30:09.259Z,12.30
2017-09-27T19:32:36.813Z,12.20
2017-09-27T19:35:04.363Z,12.20
2017-09-27T19:37:31.923Z,12.20
2017-09-27T19:39:59.490Z,12.10
2017-09-27T19:42:27.042Z,12.00
2017-09-27T19:44:54.571Z,11.90
2017-09-27T19:47:22.871Z,11.90
2017-09-27T19:49:50.418Z,11.80
2017-09-27T19:52:18.006Z,11.80
2017-09-27T19:54:45.542Z,11.80
2017-09-27T19:57:13.106Z,11.70
2017-09-27T19:59:40.646Z,11.70
2017-09-27T20:02:08.946Z,11.60
2017-09-27T20:04:36.494Z,11.60
2017-09-27T20:07:04.086Z,11.60
2017-09-27T20:09:31.636Z,11.50
2017-09-27T20:11:59.188Z,11.50
2017-09-27T20:14:26.725Z,11.40
2017-09-27T20:16:55.038Z,11.30
2017-09-27T20:19:22.587Z,11.30
2017-09-27T20:21:50.121Z,11.30
2017-09-27T20:24:18.417Z,11.20
2017-09-27T20:26:45.969Z,11.20
2017-09-27T20:29:13.505Z,11.20
2017-09-27T20:31:41.811Z,11.10
2017-09-27T20:34:09.365Z,11.10
2017-09-27T20:36:46.139Z,11.10
2017-09-27T20:39:13.693Z,11.00
2017-09-27T20:41:41.237Z,10.90
2017-09-27T20:44:09.541Z,10.80
2017-09-27T20:46:37.089Z,10.80
2017-09-27T20:49:05.381Z,10.70
2017-09-27T20:51:32.911Z,10.70
2017-09-27T20:54:01.228Z,10.70
2017-09-27T20:56:28.759Z,10.70
2017-09-27T20:58:57.064Z,10.60
2017-09-27T21:01:24.610Z,10.60
2017-09-27T21:03:52.134Z,10.60
2017-09-27T21:06:19.678Z,10.50
2017-09-27T21:08:47.238Z,10.50
2017-09-27T21:11:14.766Z,10.50
2017-09-27T21:13:42.338Z,10.50
2017-09-27T21:16:10.192Z,10.50
2017-09-27T21:18:37.795Z,10.40
2017-09-27T21:21:06.114Z,10.40
2017-09-27T21:23:33.942Z,10.30
2017-09-27T21:26:02.289Z,10.30
2017-09-27T21:28:29.822Z,10.30
2017-09-27T21:30:57.399Z,10.30
2017-09-27T21:33:24.937Z,10.30
2017-09-27T21:35:52.468Z,10.20
2017-09-27T21:38:20.790Z,10.20
2017-09-27T21:40:48.357Z,10.20
2017-09-27T21:43:16.604Z,10.10
2017-09-27T21:45:44.165Z,10.10
2017-09-27T21:48:11.755Z,10.10
2017-09-27T21:50:39.288Z,10.10
2017-09-27T21:53:06.882Z,10.00
2017-09-27T21:55:34.422Z,10.10
2017-09-27T21:58:01.954Z,10.00
2017-09-27T22:00:30.370Z,10.00
2017-09-27T22:02:57.906Z,10.00
2017-09-27T22:05:25.442Z,9.90
2017-09-27T22:07:53.758Z,9.90
2017-09-27T22:10:21.334Z,9.90
2017-09-27T22:12:48.862Z,9.90
2017-09-27T22:15:16.413Z,9.80
2017-09-27T22:17:44.710Z,9.80
2017-09-27T22:20:12.921Z,9.80
2017-09-27T22:22:40.465Z,9.80
2017-09-27T22:25:08.013Z,9.80
2017-09-27T22:27:35.549Z,9.70
2017-09-27T22:30:03.095Z,9.70
2017-09-27T22:32:31.405Z,9.60
2017-09-27T22:34:58.935Z,9.60
2017-09-27T22:37:27.242Z,9.60
2017-09-27T22:39:54.765Z,9.60
2017-09-27T22:42:23.065Z,9.60
2017-09-27T22:44:50.640Z,9.60
2017-09-27T22:47:18.161Z,9.60
2017-09-27T22:49:46.456Z,9.50
2017-09-27T22:52:13.998Z,9.40
2017-09-27T22:54:42.319Z,9.40
2017-09-27T22:57:09.849Z,9.40
2017-09-27T22:59:37.435Z,9.40
2017-09-27T23:02:05.003Z,9.30
2017-09-27T23:04:32.554Z,9.30
2017-09-27T23:07:00.118Z,9.30
2017-09-27T23:09:27.774Z,9.20
2017-09-27T23:11:55.338Z,9.20
2017-09-27T23:14:22.882Z,9.10
2017-09-27T23:16:50.462Z,9.20
2017-09-27T23:19:18.039Z,9.10
2017-09-27T23:21:45.697Z,9.10
2017-09-27T23:24:13.226Z,9.10
2017-09-27T23:26:40.754Z,9.10
2017-09-27T23:29:09.063Z,9.00
2017-09-27T23:31:36.601Z,9.00
2017-09-27T23:34:04.917Z,9.00
2017-09-27T23:36:32.457Z,9.00
2017-09-27T23:39:00.036Z,9.00
2017-09-27T23:41:27.563Z,8.90
2017-09-27T23:43:55.871Z,8.90
2017-09-27T23:46:23.397Z,8.90
2017-09-27T23:48:51.691Z,8.80
2017-09-27T23:51:19.261Z,8.80
2017-09-27T23:53:46.787Z,8.80
2017-09-27T23:56:15.103Z,8.80
2017-09-27T23:58:42.642Z,8.70
